sensor_id;sensor_type;location;lat;lon;timestamp;P1;durP1;ratioP1;P2;durP2;ratioP2
71038;SDS011;58692;43.212;27.908;2023-04-25T00:00:04;14.63;;;4.70;;
71038;SDS011;58692;43.212;27.908;2023-04-25T00:02:32;15.52;;;6.32;;
71038;SDS011;58692;43.212;27.908;2023-04-25T00:05:00;14.70;;;5.40;;
71038;SDS011;58692;43.212;27.908;2023-04-25T00:07:26;16.75;;;6.00;;
71038;SDS011;58692;43.212;27.908;2023-04-25T00:09:52;18.88;;;6.50;;
71038;SDS011;58692;43.212;27.908;2023-04-25T00:12:18;15.13;;;6.80;;
71038;SDS011;58692;43.212;27.908;2023-04-25T00:14:43;14.73;;;6.00;;
71038;SDS011;58692;43.212;27.908;2023-04-25T00:17:10;15.60;;;6.53;;
71038;SDS011;58692;43.212;27.908;2023-04-25T00:19:36;17.37;;;6.20;;
71038;SDS011;58692;43.212;27.908;2023-04-25T00:22:02;16.65;;;5.88;;
71038;SDS011;58692;43.212;27.908;2023-04-25T00:24:28;19.33;;;6.80;;
71038;SDS011;58692;43.212;27.908;2023-04-25T00:26:54;15.93;;;6.17;;
71038;SDS011;58692;43.212;27.908;2023-04-25T00:29:19;12.87;;;5.50;;
71038;SDS011;58692;43.212;27.908;2023-04-25T00:31:45;18.17;;;5.72;;
71038;SDS011;58692;43.212;27.908;2023-04-25T00:34:10;16.57;;;5.60;;
71038;SDS011;58692;43.212;27.908;2023-04-25T00:36:36;17.23;;;6.00;;
71038;SDS011;58692;43.212;27.908;2023-04-25T00:39:01;12.47;;;5.60;;
71038;SDS011;58692;43.212;27.908;2023-04-25T00:41:27;16.97;;;5.90;;
71038;SDS011;58692;43.212;27.908;2023-04-25T00:43:55;13.88;;;6.18;;
71038;SDS011;58692;43.212;27.908;2023-04-25T00:46:21;17.08;;;6.20;;
71038;SDS011;58692;43.212;27.908;2023-04-25T00:48:47;21.40;;;6.37;;
71038;SDS011;58692;43.212;27.908;2023-04-25T00:51:13;17.67;;;5.88;;
71038;SDS011;58692;43.212;27.908;2023-04-25T00:53:41;19.50;;;6.07;;
71038;SDS011;58692;43.212;27.908;2023-04-25T00:56:07;13.85;;;5.78;;
71038;SDS011;58692;43.212;27.908;2023-04-25T00:58:33;17.27;;;6.18;;
71038;SDS011;58692;43.212;27.908;2023-04-25T01:00:58;21.33;;;6.30;;
71038;SDS011;58692;43.212;27.908;2023-04-25T01:03:25;16.35;;;6.90;;
71038;SDS011;58692;43.212;27.908;2023-04-25T01:05:53;15.25;;;6.35;;
71038;SDS011;58692;43.212;27.908;2023-04-25T01:08:19;21.30;;;6.20;;
71038;SDS011;58692;43.212;27.908;2023-04-25T01:10:48;11.02;;;5.40;;
71038;SDS011;58692;43.212;27.908;2023-04-25T01:13:14;15.93;;;6.10;;
71038;SDS011;58692;43.212;27.908;2023-04-25T01:15:39;13.82;;;5.80;;
71038;SDS011;58692;43.212;27.908;2023-04-25T01:18:05;19.40;;;6.40;;
71038;SDS011;58692;43.212;27.908;2023-04-25T01:20:31;14.43;;;6.05;;
71038;SDS011;58692;43.212;27.908;2023-04-25T01:22:58;19.67;;;6.85;;
71038;SDS011;58692;43.212;27.908;2023-04-25T01:25:24;14.68;;;5.72;;
71038;SDS011;58692;43.212;27.908;2023-04-25T01:27:50;17.50;;;6.10;;
71038;SDS011;58692;43.212;27.908;2023-04-25T01:30:15;15.38;;;5.68;;
71038;SDS011;58692;43.212;27.908;2023-04-25T01:32:41;17.53;;;6.20;;
71038;SDS011;58692;43.212;27.908;2023-04-25T01:35:09;15.52;;;6.32;;
71038;SDS011;58692;43.212;27.908;2023-04-25T01:37:39;20.55;;;5.82;;
71038;SDS011;58692;43.212;27.908;2023-04-25T01:40:06;16.63;;;6.43;;
71038;SDS011;58692;43.212;27.908;2023-04-25T01:42:32;16.43;;;6.43;;
71038;SDS011;58692;43.212;27.908;2023-04-25T01:44:59;17.40;;;6.22;;
71038;SDS011;58692;43.212;27.908;2023-04-25T01:47:25;18.48;;;6.28;;
71038;SDS011;58692;43.212;27.908;2023-04-25T01:49:51;16.40;;;5.70;;
71038;SDS011;58692;43.212;27.908;2023-04-25T01:52:16;16.70;;;5.97;;
71038;SDS011;58692;43.212;27.908;2023-04-25T01:54:42;20.67;;;5.72;;
71038;SDS011;58692;43.212;27.908;2023-04-25T01:57:10;13.55;;;5.80;;
71038;SDS011;58692;43.212;27.908;2023-04-25T01:59:36;17.77;;;6.57;;
71038;SDS011;58692;43.212;27.908;2023-04-25T02:02:02;16.55;;;5.97;;
71038;SDS011;58692;43.212;27.908;2023-04-25T02:04:29;17.83;;;6.20;;
71038;SDS011;58692;43.212;27.908;2023-04-25T02:06:55;18.90;;;6.13;;
71038;SDS011;58692;43.212;27.908;2023-04-25T02:09:20;19.33;;;6.37;;
71038;SDS011;58692;43.212;27.908;2023-04-25T02:11:46;17.53;;;6.27;;
71038;SDS011;58692;43.212;27.908;2023-04-25T02:14:11;15.55;;;6.53;;
71038;SDS011;58692;43.212;27.908;2023-04-25T02:16:37;18.50;;;6.97;;
71038;SDS011;58692;43.212;27.908;2023-04-25T02:19:05;16.13;;;6.40;;
71038;SDS011;58692;43.212;27.908;2023-04-25T02:21:31;20.88;;;7.05;;
71038;SDS011;58692;43.212;27.908;2023-04-25T02:23:57;12.97;;;5.83;;
71038;SDS011;58692;43.212;27.908;2023-04-25T02:26:23;15.20;;;6.20;;
71038;SDS011;58692;43.212;27.908;2023-04-25T02:28:50;17.92;;;7.20;;
71038;SDS011;58692;43.212;27.908;2023-04-25T02:31:16;12.57;;;6.93;;
71038;SDS011;58692;43.212;27.908;2023-04-25T02:33:42;19.57;;;7.10;;
71038;SDS011;58692;43.212;27.908;2023-04-25T02:36:08;22.00;;;7.20;;
71038;SDS011;58692;43.212;27.908;2023-04-25T02:38:33;13.40;;;6.53;;
71038;SDS011;58692;43.212;27.908;2023-04-25T02:40:59;18.50;;;6.85;;
71038;SDS011;58692;43.212;27.908;2023-04-25T02:43:25;22.07;;;7.80;;
71038;SDS011;58692;43.212;27.908;2023-04-25T02:45:51;20.10;;;7.78;;
71038;SDS011;58692;43.212;27.908;2023-04-25T02:48:16;22.83;;;7.73;;
71038;SDS011;58692;43.212;27.908;2023-04-25T02:50:42;16.27;;;7.30;;
71038;SDS011;58692;43.212;27.908;2023-04-25T02:53:07;18.13;;;6.57;;
71038;SDS011;58692;43.212;27.908;2023-04-25T02:55:33;20.13;;;7.50;;
71038;SDS011;58692;43.212;27.908;2023-04-25T02:57:58;18.13;;;7.57;;
71038;SDS011;58692;43.212;27.908;2023-04-25T03:00:24;22.87;;;7.90;;
71038;SDS011;58692;43.212;27.908;2023-04-25T03:02:50;18.20;;;7.80;;
71038;SDS011;58692;43.212;27.908;2023-04-25T03:05:16;17.38;;;7.03;;
71038;SDS011;58692;43.212;27.908;2023-04-25T03:07:42;19.85;;;8.25;;
71038;SDS011;58692;43.212;27.908;2023-04-25T03:10:08;20.08;;;7.70;;
71038;SDS011;58692;43.212;27.908;2023-04-25T03:12:34;17.70;;;8.15;;
71038;SDS011;58692;43.212;27.908;2023-04-25T03:15:00;17.33;;;8.00;;
71038;SDS011;58692;43.212;27.908;2023-04-25T03:17:25;19.73;;;7.80;;
71038;SDS011;58692;43.212;27.908;2023-04-25T03:19:51;14.70;;;7.90;;
71038;SDS011;58692;43.212;27.908;2023-04-25T03:22:16;20.57;;;7.77;;
71038;SDS011;58692;43.212;27.908;2023-04-25T03:24:42;19.00;;;8.03;;
71038;SDS011;58692;43.212;27.908;2023-04-25T03:27:07;20.15;;;8.50;;
71038;SDS011;58692;43.212;27.908;2023-04-25T03:29:34;20.33;;;8.13;;
71038;SDS011;58692;43.212;27.908;2023-04-25T03:32:00;22.42;;;8.55;;
71038;SDS011;58692;43.212;27.908;2023-04-25T03:34:26;20.97;;;8.27;;
71038;SDS011;58692;43.212;27.908;2023-04-25T03:36:51;21.10;;;8.88;;
71038;SDS011;58692;43.212;27.908;2023-04-25T03:39:17;19.75;;;7.70;;
71038;SDS011;58692;43.212;27.908;2023-04-25T03:41:43;17.27;;;7.87;;
71038;SDS011;58692;43.212;27.908;2023-04-25T03:44:08;24.27;;;8.43;;
71038;SDS011;58692;43.212;27.908;2023-04-25T03:46:34;20.70;;;8.10;;
71038;SDS011;58692;43.212;27.908;2023-04-25T03:48:59;21.17;;;8.10;;
71038;SDS011;58692;43.212;27.908;2023-04-25T03:51:25;18.47;;;8.30;;
71038;SDS011;58692;43.212;27.908;2023-04-25T03:53:51;23.27;;;8.77;;
71038;SDS011;58692;43.212;27.908;2023-04-25T03:56:17;20.75;;;8.30;;
71038;SDS011;58692;43.212;27.908;2023-04-25T03:58:42;18.87;;;8.17;;
71038;SDS011;58692;43.212;27.908;2023-04-25T04:01:09;19.33;;;8.95;;
71038;SDS011;58692;43.212;27.908;2023-04-25T04:03:35;20.50;;;9.43;;
71038;SDS011;58692;43.212;27.908;2023-04-25T04:06:03;19.65;;;9.07;;
71038;SDS011;58692;43.212;27.908;2023-04-25T04:08:30;20.77;;;9.00;;
71038;SDS011;58692;43.212;27.908;2023-04-25T04:10:57;17.65;;;8.93;;
71038;SDS011;58692;43.212;27.908;2023-04-25T04:13:23;21.53;;;8.63;;
71038;SDS011;58692;43.212;27.908;2023-04-25T04:15:49;21.05;;;8.45;;
71038;SDS011;58692;43.212;27.908;2023-04-25T04:18:16;23.95;;;8.02;;
71038;SDS011;58692;43.212;27.908;2023-04-25T04:20:42;20.00;;;8.57;;
71038;SDS011;58692;43.212;27.908;2023-04-25T04:23:19;18.02;;;7.38;;
71038;SDS011;58692;43.212;27.908;2023-04-25T04:25:47;16.30;;;6.95;;
71038;SDS011;58692;43.212;27.908;2023-04-25T04:28:13;18.77;;;7.47;;
71038;SDS011;58692;43.212;27.908;2023-04-25T04:30:48;17.65;;;7.35;;
71038;SDS011;58692;43.212;27.908;2023-04-25T04:33:22;15.27;;;7.03;;
71038;SDS011;58692;43.212;27.908;2023-04-25T04:35:50;21.05;;;8.07;;
71038;SDS011;58692;43.212;27.908;2023-04-25T04:38:18;18.40;;;7.25;;
71038;SDS011;58692;43.212;27.908;2023-04-25T04:40:44;20.03;;;7.90;;
71038;SDS011;58692;43.212;27.908;2023-04-25T04:43:11;16.15;;;7.68;;
71038;SDS011;58692;43.212;27.908;2023-04-25T04:45:36;16.50;;;6.50;;
71038;SDS011;58692;43.212;27.908;2023-04-25T04:48:05;15.67;;;6.53;;
71038;SDS011;58692;43.212;27.908;2023-04-25T04:50:31;15.35;;;6.53;;
71038;SDS011;58692;43.212;27.908;2023-04-25T04:52:57;19.27;;;6.93;;
71038;SDS011;58692;43.212;27.908;2023-04-25T04:55:23;20.40;;;7.50;;
71038;SDS011;58692;43.212;27.908;2023-04-25T04:57:49;19.58;;;7.35;;
71038;SDS011;58692;43.212;27.908;2023-04-25T05:00:15;17.25;;;7.90;;
71038;SDS011;58692;43.212;27.908;2023-04-25T05:02:40;18.93;;;8.67;;
71038;SDS011;58692;43.212;27.908;2023-04-25T05:05:06;19.23;;;8.15;;
71038;SDS011;58692;43.212;27.908;2023-04-25T05:07:33;21.33;;;7.87;;
71038;SDS011;58692;43.212;27.908;2023-04-25T05:09:59;19.13;;;7.22;;
71038;SDS011;58692;43.212;27.908;2023-04-25T05:12:24;15.40;;;6.60;;
71038;SDS011;58692;43.212;27.908;2023-04-25T05:14:50;18.13;;;8.10;;
71038;SDS011;58692;43.212;27.908;2023-04-25T05:17:16;15.68;;;6.93;;
71038;SDS011;58692;43.212;27.908;2023-04-25T05:19:41;15.77;;;6.80;;
71038;SDS011;58692;43.212;27.908;2023-04-25T05:22:07;18.00;;;7.18;;
71038;SDS011;58692;43.212;27.908;2023-04-25T05:24:32;20.10;;;6.67;;
71038;SDS011;58692;43.212;27.908;2023-04-25T05:26:58;17.37;;;6.50;;
71038;SDS011;58692;43.212;27.908;2023-04-25T05:29:23;20.37;;;7.10;;
71038;SDS011;58692;43.212;27.908;2023-04-25T05:31:49;12.90;;;6.60;;
71038;SDS011;58692;43.212;27.908;2023-04-25T05:34:15;15.02;;;6.07;;
71038;SDS011;58692;43.212;27.908;2023-04-25T05:36:41;16.70;;;6.60;;
71038;SDS011;58692;43.212;27.908;2023-04-25T05:39:16;18.23;;;6.78;;
71038;SDS011;58692;43.212;27.908;2023-04-25T05:41:51;16.58;;;6.90;;
71038;SDS011;58692;43.212;27.908;2023-04-25T05:44:23;17.57;;;6.50;;
71038;SDS011;58692;43.212;27.908;2023-04-25T05:46:49;18.73;;;6.82;;
71038;SDS011;58692;43.212;27.908;2023-04-25T05:49:15;17.00;;;6.78;;
71038;SDS011;58692;43.212;27.908;2023-04-25T05:51:40;14.13;;;6.40;;
71038;SDS011;58692;43.212;27.908;2023-04-25T05:54:06;16.98;;;6.50;;
71038;SDS011;58692;43.212;27.908;2023-04-25T05:56:31;14.37;;;6.97;;
71038;SDS011;58692;43.212;27.908;2023-04-25T05:59:00;24.00;;;7.20;;
71038;SDS011;58692;43.212;27.908;2023-04-25T06:01:26;16.07;;;7.10;;
71038;SDS011;58692;43.212;27.908;2023-04-25T06:03:51;17.60;;;7.10;;
71038;SDS011;58692;43.212;27.908;2023-04-25T06:06:17;17.20;;;7.57;;
71038;SDS011;58692;43.212;27.908;2023-04-25T06:08:43;17.45;;;6.38;;
71038;SDS011;58692;43.212;27.908;2023-04-25T06:11:11;18.70;;;6.60;;
71038;SDS011;58692;43.212;27.908;2023-04-25T06:13:37;18.45;;;6.78;;
71038;SDS011;58692;43.212;27.908;2023-04-25T06:16:02;14.98;;;7.22;;
71038;SDS011;58692;43.212;27.908;2023-04-25T06:18:28;15.60;;;7.30;;
71038;SDS011;58692;43.212;27.908;2023-04-25T06:20:53;22.90;;;7.47;;
71038;SDS011;58692;43.212;27.908;2023-04-25T06:23:19;17.57;;;7.20;;
71038;SDS011;58692;43.212;27.908;2023-04-25T06:25:45;19.27;;;6.90;;
71038;SDS011;58692;43.212;27.908;2023-04-25T06:28:11;20.02;;;7.57;;
71038;SDS011;58692;43.212;27.908;2023-04-25T06:30:37;18.77;;;7.83;;
71038;SDS011;58692;43.212;27.908;2023-04-25T06:33:05;17.25;;;7.30;;
71038;SDS011;58692;43.212;27.908;2023-04-25T06:35:31;14.25;;;6.60;;
71038;SDS011;58692;43.212;27.908;2023-04-25T06:37:57;15.02;;;6.45;;
71038;SDS011;58692;43.212;27.908;2023-04-25T06:40:23;13.63;;;6.83;;
71038;SDS011;58692;43.212;27.908;2023-04-25T06:42:58;16.50;;;7.30;;
71038;SDS011;58692;43.212;27.908;2023-04-25T06:45:23;17.33;;;8.20;;
71038;SDS011;58692;43.212;27.908;2023-04-25T06:47:49;16.20;;;6.97;;
71038;SDS011;58692;43.212;27.908;2023-04-25T06:50:14;16.13;;;7.23;;
71038;SDS011;58692;43.212;27.908;2023-04-25T06:52:40;19.15;;;6.90;;
71038;SDS011;58692;43.212;27.908;2023-04-25T06:55:06;16.20;;;7.00;;
71038;SDS011;58692;43.212;27.908;2023-04-25T06:57:32;18.17;;;6.90;;
71038;SDS011;58692;43.212;27.908;2023-04-25T07:00:00;15.50;;;6.22;;
71038;SDS011;58692;43.212;27.908;2023-04-25T07:02:26;16.17;;;6.20;;
71038;SDS011;58692;43.212;27.908;2023-04-25T07:04:51;14.63;;;6.65;;
71038;SDS011;58692;43.212;27.908;2023-04-25T07:07:17;15.27;;;7.07;;
71038;SDS011;58692;43.212;27.908;2023-04-25T07:09:42;17.98;;;6.68;;
71038;SDS011;58692;43.212;27.908;2023-04-25T07:12:08;15.63;;;6.23;;
71038;SDS011;58692;43.212;27.908;2023-04-25T07:14:33;15.70;;;7.53;;
71038;SDS011;58692;43.212;27.908;2023-04-25T07:16:59;14.70;;;6.35;;
71038;SDS011;58692;43.212;27.908;2023-04-25T07:19:24;20.63;;;6.83;;
71038;SDS011;58692;43.212;27.908;2023-04-25T07:21:51;14.48;;;6.53;;
71038;SDS011;58692;43.212;27.908;2023-04-25T07:24:17;14.85;;;6.38;;
71038;SDS011;58692;43.212;27.908;2023-04-25T07:26:43;13.23;;;6.50;;
71038;SDS011;58692;43.212;27.908;2023-04-25T07:29:09;14.82;;;6.47;;
71038;SDS011;58692;43.212;27.908;2023-04-25T07:31:35;12.37;;;6.13;;
71038;SDS011;58692;43.212;27.908;2023-04-25T07:34:00;14.57;;;6.75;;
71038;SDS011;58692;43.212;27.908;2023-04-25T07:36:26;13.07;;;6.70;;
71038;SDS011;58692;43.212;27.908;2023-04-25T07:38:52;12.00;;;6.07;;
71038;SDS011;58692;43.212;27.908;2023-04-25T07:41:17;10.23;;;5.83;;
71038;SDS011;58692;43.212;27.908;2023-04-25T07:43:45;13.93;;;6.40;;
71038;SDS011;58692;43.212;27.908;2023-04-25T07:46:11;14.23;;;6.23;;
71038;SDS011;58692;43.212;27.908;2023-04-25T07:48:53;17.08;;;6.43;;
71038;SDS011;58692;43.212;27.908;2023-04-25T07:51:19;14.10;;;6.47;;
71038;SDS011;58692;43.212;27.908;2023-04-25T07:53:47;15.18;;;6.93;;
71038;SDS011;58692;43.212;27.908;2023-04-25T07:56:24;15.55;;;7.20;;
71038;SDS011;58692;43.212;27.908;2023-04-25T07:58:50;14.90;;;8.27;;
71038;SDS011;58692;43.212;27.908;2023-04-25T08:01:19;16.88;;;7.80;;
71038;SDS011;58692;43.212;27.908;2023-04-25T08:03:46;16.23;;;7.70;;
71038;SDS011;58692;43.212;27.908;2023-04-25T08:06:12;16.33;;;7.73;;
71038;SDS011;58692;43.212;27.908;2023-04-25T08:08:50;16.05;;;8.07;;
71038;SDS011;58692;43.212;27.908;2023-04-25T08:11:16;13.73;;;7.50;;
71038;SDS011;58692;43.212;27.908;2023-04-25T08:13:41;16.38;;;7.80;;
71038;SDS011;58692;43.212;27.908;2023-04-25T08:16:07;17.10;;;7.60;;
71038;SDS011;58692;43.212;27.908;2023-04-25T08:18:32;14.37;;;7.97;;
71038;SDS011;58692;43.212;27.908;2023-04-25T08:20:58;15.55;;;8.05;;
71038;SDS011;58692;43.212;27.908;2023-04-25T08:23:23;16.10;;;8.37;;
71038;SDS011;58692;43.212;27.908;2023-04-25T08:25:48;18.67;;;8.20;;
71038;SDS011;58692;43.212;27.908;2023-04-25T08:28:14;17.00;;;8.75;;
71038;SDS011;58692;43.212;27.908;2023-04-25T08:30:40;14.20;;;8.30;;
71038;SDS011;58692;43.212;27.908;2023-04-25T08:33:09;15.10;;;8.30;;
71038;SDS011;58692;43.212;27.908;2023-04-25T08:35:35;19.08;;;8.38;;
71038;SDS011;58692;43.212;27.908;2023-04-25T08:38:01;17.77;;;8.67;;
71038;SDS011;58692;43.212;27.908;2023-04-25T08:40:27;15.60;;;8.10;;
71038;SDS011;58692;43.212;27.908;2023-04-25T08:43:00;14.38;;;7.53;;
71038;SDS011;58692;43.212;27.908;2023-04-25T08:45:28;15.13;;;7.97;;
71038;SDS011;58692;43.212;27.908;2023-04-25T08:47:59;12.97;;;7.50;;
71038;SDS011;58692;43.212;27.908;2023-04-25T08:50:45;14.70;;;7.25;;
71038;SDS011;58692;43.212;27.908;2023-04-25T08:53:16;14.70;;;7.72;;
71038;SDS011;58692;43.212;27.908;2023-04-25T08:55:46;19.65;;;8.20;;
71038;SDS011;58692;43.212;27.908;2023-04-25T08:58:13;16.00;;;7.47;;
71038;SDS011;58692;43.212;27.908;2023-04-25T09:00:39;16.53;;;7.27;;
71038;SDS011;58692;43.212;27.908;2023-04-25T09:03:05;14.13;;;7.20;;
71038;SDS011;58692;43.212;27.908;2023-04-25T09:05:34;15.82;;;6.82;;
71038;SDS011;58692;43.212;27.908;2023-04-25T09:08:00;11.52;;;6.25;;
71038;SDS011;58692;43.212;27.908;2023-04-25T09:10:27;15.20;;;6.80;;
71038;SDS011;58692;43.212;27.908;2023-04-25T09:15:58;13.23;;;6.28;;
71038;SDS011;58692;43.212;27.908;2023-04-25T09:21:07;12.98;;;6.43;;
71038;SDS011;58692;43.212;27.908;2023-04-25T09:26:44;12.90;;;6.40;;
71038;SDS011;58692;43.212;27.908;2023-04-25T09:29:56;11.65;;;6.10;;
71038;SDS011;58692;43.212;27.908;2023-04-25T09:33:29;12.88;;;6.53;;
71038;SDS011;58692;43.212;27.908;2023-04-25T09:36:37;12.95;;;6.00;;
71038;SDS011;58692;43.212;27.908;2023-04-25T09:39:23;13.45;;;5.95;;
71038;SDS011;58692;43.212;27.908;2023-04-25T09:42:41;15.40;;;6.33;;
71038;SDS011;58692;43.212;27.908;2023-04-25T09:45:17;14.85;;;6.25;;
71038;SDS011;58692;43.212;27.908;2023-04-25T09:47:42;15.17;;;6.23;;
71038;SDS011;58692;43.212;27.908;2023-04-25T09:50:14;13.40;;;6.53;;
71038;SDS011;58692;43.212;27.908;2023-04-25T09:52:44;13.05;;;5.95;;
71038;SDS011;58692;43.212;27.908;2023-04-25T09:55:09;16.30;;;6.40;;
71038;SDS011;58692;43.212;27.908;2023-04-25T09:57:35;10.93;;;5.40;;
71038;SDS011;58692;43.212;27.908;2023-04-25T10:00:04;12.52;;;5.60;;
71038;SDS011;58692;43.212;27.908;2023-04-25T10:02:52;14.55;;;6.22;;
71038;SDS011;58692;43.212;27.908;2023-04-25T10:05:19;10.98;;;5.70;;
71038;SDS011;58692;43.212;27.908;2023-04-25T10:07:47;9.48;;;5.45;;
71038;SDS011;58692;43.212;27.908;2023-04-25T10:10:13;9.97;;;5.47;;
71038;SDS011;58692;43.212;27.908;2023-04-25T10:12:43;15.20;;;5.60;;
71038;SDS011;58692;43.212;27.908;2023-04-25T10:15:10;10.35;;;5.53;;
71038;SDS011;58692;43.212;27.908;2023-04-25T10:17:37;10.35;;;5.47;;
71038;SDS011;58692;43.212;27.908;2023-04-25T10:20:04;10.38;;;5.53;;
71038;SDS011;58692;43.212;27.908;2023-04-25T10:22:36;10.47;;;5.20;;
71038;SDS011;58692;43.212;27.908;2023-04-25T10:25:04;9.85;;;5.25;;
71038;SDS011;58692;43.212;27.908;2023-04-25T10:27:32;10.50;;;5.53;;
71038;SDS011;58692;43.212;27.908;2023-04-25T10:32:41;11.77;;;5.60;;
71038;SDS011;58692;43.212;27.908;2023-04-25T10:35:15;10.03;;;5.27;;
71038;SDS011;58692;43.212;27.908;2023-04-25T10:40:32;11.48;;;5.40;;
71038;SDS011;58692;43.212;27.908;2023-04-25T10:45:59;11.35;;;5.28;;
71038;SDS011;58692;43.212;27.908;2023-04-25T10:48:26;11.33;;;5.57;;
71038;SDS011;58692;43.212;27.908;2023-04-25T10:53:34;10.95;;;5.10;;
71038;SDS011;58692;43.212;27.908;2023-04-25T10:56:00;11.00;;;5.43;;
71038;SDS011;58692;43.212;27.908;2023-04-25T10:58:34;10.85;;;5.45;;
71038;SDS011;58692;43.212;27.908;2023-04-25T11:01:00;11.23;;;5.20;;
71038;SDS011;58692;43.212;27.908;2023-04-25T11:03:28;11.57;;;5.78;;
71038;SDS011;58692;43.212;27.908;2023-04-25T11:05:55;11.85;;;5.50;;
71038;SDS011;58692;43.212;27.908;2023-04-25T11:08:33;14.33;;;5.93;;
71038;SDS011;58692;43.212;27.908;2023-04-25T11:11:12;14.27;;;5.90;;
71038;SDS011;58692;43.212;27.908;2023-04-25T11:13:38;12.00;;;5.97;;
71038;SDS011;58692;43.212;27.908;2023-04-25T11:16:06;12.68;;;5.95;;
71038;SDS011;58692;43.212;27.908;2023-04-25T11:18:32;11.02;;;5.38;;
71038;SDS011;58692;43.212;27.908;2023-04-25T11:20:59;11.10;;;5.67;;
71038;SDS011;58692;43.212;27.908;2023-04-25T11:23:25;9.52;;;5.60;;
71038;SDS011;58692;43.212;27.908;2023-04-25T11:25:52;11.35;;;5.85;;
71038;SDS011;58692;43.212;27.908;2023-04-25T11:28:21;11.13;;;5.80;;
71038;SDS011;58692;43.212;27.908;2023-04-25T11:30:48;11.63;;;5.15;;
71038;SDS011;58692;43.212;27.908;2023-04-25T11:33:16;11.77;;;5.97;;
71038;SDS011;58692;43.212;27.908;2023-04-25T11:35:41;12.98;;;5.88;;
71038;SDS011;58692;43.212;27.908;2023-04-25T11:38:07;11.33;;;5.47;;
71038;SDS011;58692;43.212;27.908;2023-04-25T11:40:34;15.77;;;5.50;;
71038;SDS011;58692;43.212;27.908;2023-04-25T11:43:00;7.97;;;4.90;;
71038;SDS011;58692;43.212;27.908;2023-04-25T11:45:26;12.65;;;5.35;;
71038;SDS011;58692;43.212;27.908;2023-04-25T11:47:54;10.68;;;5.30;;
71038;SDS011;58692;43.212;27.908;2023-04-25T11:50:19;9.73;;;5.10;;
71038;SDS011;58692;43.212;27.908;2023-04-25T11:52:45;8.70;;;5.30;;
71038;SDS011;58692;43.212;27.908;2023-04-25T11:55:13;10.30;;;5.10;;
71038;SDS011;58692;43.212;27.908;2023-04-25T11:57:39;10.43;;;5.35;;
71038;SDS011;58692;43.212;27.908;2023-04-25T12:00:11;11.13;;;5.38;;
71038;SDS011;58692;43.212;27.908;2023-04-25T12:02:41;9.48;;;5.10;;
71038;SDS011;58692;43.212;27.908;2023-04-25T12:05:08;11.73;;;4.78;;
71038;SDS011;58692;43.212;27.908;2023-04-25T12:07:35;9.37;;;4.83;;
71038;SDS011;58692;43.212;27.908;2023-04-25T12:12:34;7.90;;;4.60;;
71038;SDS011;58692;43.212;27.908;2023-04-25T12:15:09;12.20;;;4.90;;
71038;SDS011;58692;43.212;27.908;2023-04-25T12:17:36;8.95;;;4.60;;
71038;SDS011;58692;43.212;27.908;2023-04-25T12:20:07;10.43;;;4.77;;
71038;SDS011;58692;43.212;27.908;2023-04-25T12:22:34;9.65;;;5.30;;
71038;SDS011;58692;43.212;27.908;2023-04-25T12:25:01;11.15;;;4.75;;
71038;SDS011;58692;43.212;27.908;2023-04-25T12:27:30;9.95;;;4.97;;
71038;SDS011;58692;43.212;27.908;2023-04-25T12:29:57;9.45;;;4.90;;
71038;SDS011;58692;43.212;27.908;2023-04-25T12:32:23;11.47;;;5.43;;
71038;SDS011;58692;43.212;27.908;2023-04-25T12:34:49;11.45;;;4.88;;
71038;SDS011;58692;43.212;27.908;2023-04-25T12:37:14;10.82;;;5.68;;
71038;SDS011;58692;43.212;27.908;2023-04-25T12:39:40;13.20;;;5.88;;
71038;SDS011;58692;43.212;27.908;2023-04-25T12:42:06;11.10;;;5.27;;
71038;SDS011;58692;43.212;27.908;2023-04-25T12:44:36;9.82;;;5.10;;
71038;SDS011;58692;43.212;27.908;2023-04-25T12:47:02;9.30;;;5.20;;
71038;SDS011;58692;43.212;27.908;2023-04-25T12:49:31;10.33;;;6.30;;
71038;SDS011;58692;43.212;27.908;2023-04-25T12:52:00;12.68;;;5.60;;
71038;SDS011;58692;43.212;27.908;2023-04-25T12:54:26;10.93;;;6.65;;
71038;SDS011;58692;43.212;27.908;2023-04-25T12:56:51;10.10;;;5.83;;
71038;SDS011;58692;43.212;27.908;2023-04-25T12:59:17;11.15;;;5.80;;
71038;SDS011;58692;43.212;27.908;2023-04-25T13:01:43;11.57;;;5.70;;
71038;SDS011;58692;43.212;27.908;2023-04-25T13:04:10;10.50;;;5.57;;
71038;SDS011;58692;43.212;27.908;2023-04-25T13:06:36;10.60;;;6.05;;
71038;SDS011;58692;43.212;27.908;2023-04-25T13:09:01;12.55;;;5.70;;
71038;SDS011;58692;43.212;27.908;2023-04-25T13:11:31;11.23;;;6.67;;
71038;SDS011;58692;43.212;27.908;2023-04-25T13:13:57;10.27;;;5.72;;
71038;SDS011;58692;43.212;27.908;2023-04-25T13:16:25;12.73;;;6.63;;
71038;SDS011;58692;43.212;27.908;2023-04-25T13:18:54;12.82;;;6.10;;
71038;SDS011;58692;43.212;27.908;2023-04-25T13:21:21;12.23;;;6.37;;
71038;SDS011;58692;43.212;27.908;2023-04-25T13:23:46;14.07;;;7.18;;
71038;SDS011;58692;43.212;27.908;2023-04-25T13:26:12;15.13;;;7.63;;
71038;SDS011;58692;43.212;27.908;2023-04-25T13:28:37;14.73;;;6.75;;
71038;SDS011;58692;43.212;27.908;2023-04-25T13:31:03;14.43;;;7.63;;
71038;SDS011;58692;43.212;27.908;2023-04-25T13:33:28;16.07;;;7.97;;
71038;SDS011;58692;43.212;27.908;2023-04-25T13:35:54;14.43;;;8.70;;
71038;SDS011;58692;43.212;27.908;2023-04-25T13:38:22;11.95;;;8.07;;
71038;SDS011;58692;43.212;27.908;2023-04-25T13:40:49;14.88;;;8.40;;
71038;SDS011;58692;43.212;27.908;2023-04-25T13:43:17;15.77;;;8.47;;
71038;SDS011;58692;43.212;27.908;2023-04-25T13:45:44;16.52;;;8.93;;
71038;SDS011;58692;43.212;27.908;2023-04-25T13:48:09;16.57;;;9.10;;
71038;SDS011;58692;43.212;27.908;2023-04-25T13:50:35;14.48;;;8.60;;
71038;SDS011;58692;43.212;27.908;2023-04-25T13:53:01;15.63;;;8.83;;
71038;SDS011;58692;43.212;27.908;2023-04-25T13:55:26;14.98;;;8.57;;
71038;SDS011;58692;43.212;27.908;2023-04-25T13:57:52;17.77;;;9.77;;
71038;SDS011;58692;43.212;27.908;2023-04-25T14:00:17;18.05;;;10.27;;
71038;SDS011;58692;43.212;27.908;2023-04-25T14:02:43;18.00;;;10.33;;
71038;SDS011;58692;43.212;27.908;2023-04-25T14:05:09;15.70;;;9.73;;
71038;SDS011;58692;43.212;27.908;2023-04-25T14:07:35;17.47;;;10.17;;
71038;SDS011;58692;43.212;27.908;2023-04-25T14:10:16;17.27;;;9.85;;
71038;SDS011;58692;43.212;27.908;2023-04-25T14:13:28;17.67;;;9.98;;
71038;SDS011;58692;43.212;27.908;2023-04-25T14:15:53;16.27;;;10.60;;
71038;SDS011;58692;43.212;27.908;2023-04-25T14:18:19;26.40;;;11.85;;
71038;SDS011;58692;43.212;27.908;2023-04-25T14:20:48;28.80;;;11.38;;
71038;SDS011;58692;43.212;27.908;2023-04-25T14:23:13;19.77;;;10.70;;
71038;SDS011;58692;43.212;27.908;2023-04-25T14:25:39;19.25;;;10.98;;
71038;SDS011;58692;43.212;27.908;2023-04-25T14:28:06;20.30;;;11.13;;
71038;SDS011;58692;43.212;27.908;2023-04-25T14:30:33;21.83;;;11.53;;
71038;SDS011;58692;43.212;27.908;2023-04-25T14:32:58;18.88;;;10.93;;
71038;SDS011;58692;43.212;27.908;2023-04-25T14:35:24;17.50;;;9.73;;
71038;SDS011;58692;43.212;27.908;2023-04-25T14:37:50;15.90;;;9.60;;
71038;SDS011;58692;43.212;27.908;2023-04-25T14:40:16;18.70;;;9.10;;
71038;SDS011;58692;43.212;27.908;2023-04-25T14:42:43;14.07;;;8.13;;
71038;SDS011;58692;43.212;27.908;2023-04-25T14:45:09;17.52;;;9.35;;